sensor_id;sensor_type;location;lat;lon;timestamp;temperature;humidity
23073;DHT22;34865;51.046;3.732;2022-09-01T00:01:35;20.80;99.90
23073;DHT22;34865;51.046;3.732;2022-09-01T00:04:02;20.70;99.90
23073;DHT22;34865;51.046;3.732;2022-09-01T00:06:31;20.70;99.90
23073;DHT22;34865;51.046;3.732;2022-09-01T00:09:00;20.70;99.90
23073;DHT22;34865;51.046;3.732;2022-09-01T00:11:27;20.80;99.90
23073;DHT22;34865;51.046;3.732;2022-09-01T00:13:54;20.90;99.90
23073;DHT22;34865;51.046;3.732;2022-09-01T00:16:21;20.80;99.90
23073;DHT22;34865;51.046;3.732;2022-09-01T00:18:49;20.70;99.90
23073;DHT22;34865;51.046;3.732;2022-09-01T00:21:21;20.50;99.90
23073;DHT22;34865;51.046;3.732;2022-09-01T00:23:47;20.50;99.90
23073;DHT22;34865;51.046;3.732;2022-09-01T00:26:13;20.50;99.90
23073;DHT22;34865;51.046;3.732;2022-09-01T00:28:39;20.40;99.90
23073;DHT22;34865;51.046;3.732;2022-09-01T00:31:06;20.30;99.90
23073;DHT22;34865;51.046;3.732;2022-09-01T00:33:37;20.20;99.90
23073;DHT22;34865;51.046;3.732;2022-09-01T00:36:03;20.10;99.90
23073;DHT22;34865;51.046;3.732;2022-09-01T00:38:30;20.10;99.90
23073;DHT22;34865;51.046;3.732;2022-09-01T00:40:56;20.10;99.90
23073;DHT22;34865;51.046;3.732;2022-09-01T00:46:02;19.80;99.90
23073;DHT22;34865;51.046;3.732;2022-09-01T00:48:28;19.80;99.90
23073;DHT22;34865;51.046;3.732;2022-09-01T00:50:54;19.70;99.90
23073;DHT22;34865;51.046;3.732;2022-09-01T00:53:20;19.60;99.90
23073;DHT22;34865;51.046;3.732;2022-09-01T00:55:46;19.60;99.90
23073;DHT22;34865;51.046;3.732;2022-09-01T00:58:11;19.70;99.90
23073;DHT22;34865;51.046;3.732;2022-09-01T01:00:38;19.60;99.90
23073;DHT22;34865;51.046;3.732;2022-09-01T01:03:07;19.60;99.90
23073;DHT22;34865;51.046;3.732;2022-09-01T01:05:57;19.50;99.90
23073;DHT22;34865;51.046;3.732;2022-09-01T01:08:27;19.50;99.90
23073;DHT22;34865;51.046;3.732;2022-09-01T01:10:59;19.40;99.90
23073;DHT22;34865;51.046;3.732;2022-09-01T01:13:25;19.50;99.90
23073;DHT22;34865;51.046;3.732;2022-09-01T01:15:53;19.50;99.90
23073;DHT22;34865;51.046;3.732;2022-09-01T01:18:18;19.40;99.90
23073;DHT22;34865;51.046;3.732;2022-09-01T01:20:44;19.40;99.90
23073;DHT22;34865;51.046;3.732;2022-09-01T01:23:38;19.40;99.90
23073;DHT22;34865;51.046;3.732;2022-09-01T01:26:07;19.30;99.90
23073;DHT22;34865;51.046;3.732;2022-09-01T01:28:39;19.40;99.90
23073;DHT22;34865;51.046;3.732;2022-09-01T01:31:11;19.40;99.90
23073;DHT22;34865;51.046;3.732;2022-09-01T01:33:51;19.20;99.90
23073;DHT22;34865;51.046;3.732;2022-09-01T01:36:22;19.10;99.90
23073;DHT22;34865;51.046;3.732;2022-09-01T01:38:58;19.00;99.90
23073;DHT22;34865;51.046;3.732;2022-09-01T01:41:27;19.00;99.90
23073;DHT22;34865;51.046;3.732;2022-09-01T01:43:56;18.90;99.90
23073;DHT22;34865;51.046;3.732;2022-09-01T01:46:23;18.90;99.90
23073;DHT22;34865;51.046;3.732;2022-09-01T01:48:50;18.80;99.90
23073;DHT22;34865;51.046;3.732;2022-09-01T01:51:17;18.90;99.90
23073;DHT22;34865;51.046;3.732;2022-09-01T01:53:46;18.90;99.90
23073;DHT22;34865;51.046;3.732;2022-09-01T01:56:12;18.90;99.90
23073;DHT22;34865;51.046;3.732;2022-09-01T01:58:38;19.00;99.90
23073;DHT22;34865;51.046;3.732;2022-09-01T02:01:05;18.90;99.90
23073;DHT22;34865;51.046;3.732;2022-09-01T02:03:33;19.00;99.90
23073;DHT22;34865;51.046;3.732;2022-09-01T02:06:05;18.90;99.90
23073;DHT22;34865;51.046;3.732;2022-09-01T02:08:33;18.80;99.90
23073;DHT22;34865;51.046;3.732;2022-09-01T02:11:01;18.80;99.90
23073;DHT22;34865;51.046;3.732;2022-09-01T02:13:28;18.90;99.90
23073;DHT22;34865;51.046;3.732;2022-09-01T02:16:03;18.90;99.90
23073;DHT22;34865;51.046;3.732;2022-09-01T02:18:35;18.90;99.90
23073;DHT22;34865;51.046;3.732;2022-09-01T02:21:06;19.00;99.90
23073;DHT22;34865;51.046;3.732;2022-09-01T02:23:35;19.00;99.90
23073;DHT22;34865;51.046;3.732;2022-09-01T02:26:00;18.90;99.90
23073;DHT22;34865;51.046;3.732;2022-09-01T02:28:28;18.60;99.90
23073;DHT22;34865;51.046;3.732;2022-09-01T02:30:56;18.80;99.90
23073;DHT22;34865;51.046;3.732;2022-09-01T02:33:25;18.80;99.90
23073;DHT22;34865;51.046;3.732;2022-09-01T02:35:55;18.70;99.90
23073;DHT22;34865;51.046;3.732;2022-09-01T02:38:22;18.80;99.90
23073;DHT22;34865;51.046;3.732;2022-09-01T02:40:51;18.90;99.90
23073;DHT22;34865;51.046;3.732;2022-09-01T02:43:19;18.80;99.90
23073;DHT22;34865;51.046;3.732;2022-09-01T02:45:50;18.80;99.90
23073;DHT22;34865;51.046;3.732;2022-09-01T02:48:20;18.80;99.90
23073;DHT22;34865;51.046;3.732;2022-09-01T02:50:50;18.80;99.90
23073;DHT22;34865;51.046;3.732;2022-09-01T02:53:16;18.80;99.90
23073;DHT22;34865;51.046;3.732;2022-09-01T02:55:44;18.60;99.90
23073;DHT22;34865;51.046;3.732;2022-09-01T02:58:10;18.60;99.90
23073;DHT22;34865;51.046;3.732;2022-09-01T03:00:38;18.70;99.90
23073;DHT22;34865;51.046;3.732;2022-09-01T03:03:05;18.60;99.90
23073;DHT22;34865;51.046;3.732;2022-09-01T03:05:31;18.60;99.90
23073;DHT22;34865;51.046;3.732;2022-09-01T03:08:01;18.50;99.90
23073;DHT22;34865;51.046;3.732;2022-09-01T03:10:32;18.60;99.90
23073;DHT22;34865;51.046;3.732;2022-09-01T03:13:01;18.70;99.90
23073;DHT22;34865;51.046;3.732;2022-09-01T03:15:27;18.60;99.90
23073;DHT22;34865;51.046;3.732;2022-09-01T03:17:53;18.60;99.90
23073;DHT22;34865;51.046;3.732;2022-09-01T03:20:19;18.60;99.90
23073;DHT22;34865;51.046;3.732;2022-09-01T03:22:47;18.60;99.90
23073;DHT22;34865;51.046;3.732;2022-09-01T03:25:13;18.80;99.90
23073;DHT22;34865;51.046;3.732;2022-09-01T03:27:39;18.70;99.90
23073;DHT22;34865;51.046;3.732;2022-09-01T03:30:06;18.60;99.90
23073;DHT22;34865;51.046;3.732;2022-09-01T03:32:31;18.50;99.90
23073;DHT22;34865;51.046;3.732;2022-09-01T03:34:57;18.50;99.90
23073;DHT22;34865;51.046;3.732;2022-09-01T03:37:24;18.60;99.90
23073;DHT22;34865;51.046;3.732;2022-09-01T03:39:49;18.60;99.90
23073;DHT22;34865;51.046;3.732;2022-09-01T03:42:15;18.60;99.90
23073;DHT22;34865;51.046;3.732;2022-09-01T03:44:47;18.60;99.90
23073;DHT22;34865;51.046;3.732;2022-09-01T03:47:14;18.50;99.90
23073;DHT22;34865;51.046;3.732;2022-09-01T03:49:40;18.50;99.90
23073;DHT22;34865;51.046;3.732;2022-09-01T03:52:08;18.50;99.90
23073;DHT22;34865;51.046;3.732;2022-09-01T03:54:35;18.50;99.90
23073;DHT22;34865;51.046;3.732;2022-09-01T03:57:01;18.40;99.90
23073;DHT22;34865;51.046;3.732;2022-09-01T03:59:31;18.20;99.90
23073;DHT22;34865;51.046;3.732;2022-09-01T04:01:58;18.10;99.90
23073;DHT22;34865;51.046;3.732;2022-09-01T04:04:25;18.10;99.90
23073;DHT22;34865;51.046;3.732;2022-09-01T04:06:51;18.10;99.90
23073;DHT22;34865;51.046;3.732;2022-09-01T04:09:16;18.10;99.90
23073;DHT22;34865;51.046;3.732;2022-09-01T04:11:43;18.10;99.90
23073;DHT22;34865;51.046;3.732;2022-09-01T04:14:11;18.10;99.90
23073;DHT22;34865;51.046;3.732;2022-09-01T04:16:37;18.00;99.90
23073;DHT22;34865;51.046;3.732;2022-09-01T04:19:24;18.00;99.90
23073;DHT22;34865;51.046;3.732;2022-09-01T04:22:00;18.10;99.90
23073;DHT22;34865;51.046;3.732;2022-09-01T04:24:28;18.00;99.90
23073;DHT22;34865;51.046;3.732;2022-09-01T04:26:56;18.00;99.90
23073;DHT22;34865;51.046;3.732;2022-09-01T04:29:24;18.00;99.90
23073;DHT22;34865;51.046;3.732;2022-09-01T04:32:01;17.90;99.90
23073;DHT22;34865;51.046;3.732;2022-09-01T04:34:29;17.80;99.90
23073;DHT22;34865;51.046;3.732;2022-09-01T04:37:05;17.70;99.90
23073;DHT22;34865;51.046;3.732;2022-09-01T04:39:32;17.70;99.90
23073;DHT22;34865;51.046;3.732;2022-09-01T04:41:58;17.70;99.90
23073;DHT22;34865;51.046;3.732;2022-09-01T04:44:24;17.80;99.90
23073;DHT22;34865;51.046;3.732;2022-09-01T04:46:50;17.80;99.90
23073;DHT22;34865;51.046;3.732;2022-09-01T04:49:18;17.70;99.90
23073;DHT22;34865;51.046;3.732;2022-09-01T04:51:49;17.60;99.90
23073;DHT22;34865;51.046;3.732;2022-09-01T04:54:15;17.60;99.90
23073;DHT22;34865;51.046;3.732;2022-09-01T04:56:43;17.80;99.90
23073;DHT22;34865;51.046;3.732;2022-09-01T04:59:10;17.80;99.90
23073;DHT22;34865;51.046;3.732;2022-09-01T05:01:37;17.90;99.90
23073;DHT22;34865;51.046;3.732;2022-09-01T05:04:19;17.70;99.90
23073;DHT22;34865;51.046;3.732;2022-09-01T05:06:50;17.60;99.90
23073;DHT22;34865;51.046;3.732;2022-09-01T05:09:18;17.60;99.90
23073;DHT22;34865;51.046;3.732;2022-09-01T05:11:44;17.40;99.90
23073;DHT22;34865;51.046;3.732;2022-09-01T05:14:13;17.40;99.90
23073;DHT22;34865;51.046;3.732;2022-09-01T05:16:39;17.40;99.90
23073;DHT22;34865;51.046;3.732;2022-09-01T05:19:09;17.40;99.90
23073;DHT22;34865;51.046;3.732;2022-09-01T05:21:40;17.20;99.90
23073;DHT22;34865;51.046;3.732;2022-09-01T05:24:10;17.10;99.90
23073;DHT22;34865;51.046;3.732;2022-09-01T05:26:36;17.20;99.90
23073;DHT22;34865;51.046;3.732;2022-09-01T05:29:05;17.30;99.90
23073;DHT22;34865;51.046;3.732;2022-09-01T05:31:39;17.30;99.90
23073;DHT22;34865;51.046;3.732;2022-09-01T05:34:06;17.10;99.90
23073;DHT22;34865;51.046;3.732;2022-09-01T05:36:37;17.10;99.90
23073;DHT22;34865;51.046;3.732;2022-09-01T05:39:06;17.10;99.90
23073;DHT22;34865;51.046;3.732;2022-09-01T05:41:32;17.30;99.90
23073;DHT22;34865;51.046;3.732;2022-09-01T05:44:02;17.30;99.90
23073;DHT22;34865;51.046;3.732;2022-09-01T05:46:33;17.40;99.90
23073;DHT22;34865;51.046;3.732;2022-09-01T05:49:01;17.40;99.90
23073;DHT22;34865;51.046;3.732;2022-09-01T05:51:28;17.50;99.90
23073;DHT22;34865;51.046;3.732;2022-09-01T05:53:59;17.40;99.90
23073;DHT22;34865;51.046;3.732;2022-09-01T05:56:26;17.30;99.90
23073;DHT22;34865;51.046;3.732;2022-09-01T05:58:53;17.30;99.90
23073;DHT22;34865;51.046;3.732;2022-09-01T06:01:22;17.40;99.90
23073;DHT22;34865;51.046;3.732;2022-09-01T06:03:54;17.40;99.90
23073;DHT22;34865;51.046;3.732;2022-09-01T06:06:27;17.30;99.90
23073;DHT22;34865;51.046;3.732;2022-09-01T06:08:55;17.10;99.90
23073;DHT22;34865;51.046;3.732;2022-09-01T06:11:23;17.30;99.90
23073;DHT22;34865;51.046;3.732;2022-09-01T06:13:50;17.40;99.90
23073;DHT22;34865;51.046;3.732;2022-09-01T06:16:17;17.60;99.90
23073;DHT22;34865;51.046;3.732;2022-09-01T06:18:44;17.80;99.90
23073;DHT22;34865;51.046;3.732;2022-09-01T06:21:11;17.70;99.90
23073;DHT22;34865;51.046;3.732;2022-09-01T06:23:41;17.70;99.90
23073;DHT22;34865;51.046;3.732;2022-09-01T06:26:34;17.70;99.90
23073;DHT22;34865;51.046;3.732;2022-09-01T06:29:04;17.60;99.90
23073;DHT22;34865;51.046;3.732;2022-09-01T06:31:33;17.70;99.90
23073;DHT22;34865;51.046;3.732;2022-09-01T06:34:06;17.90;99.90
23073;DHT22;34865;51.046;3.732;2022-09-01T06:36:37;17.90;99.90
23073;DHT22;34865;51.046;3.732;2022-09-01T06:39:05;17.90;99.90
23073;DHT22;34865;51.046;3.732;2022-09-01T06:41:31;18.00;99.90
23073;DHT22;34865;51.046;3.732;2022-09-01T06:43:57;17.90;99.90
23073;DHT22;34865;51.046;3.732;2022-09-01T06:46:24;17.80;99.90
23073;DHT22;34865;51.046;3.732;2022-09-01T06:48:52;17.90;99.90
23073;DHT22;34865;51.046;3.732;2022-09-01T06:51:20;17.80;99.90
23073;DHT22;34865;51.046;3.732;2022-09-01T06:53:48;18.00;99.90
23073;DHT22;34865;51.046;3.732;2022-09-01T06:56:18;18.20;99.90
23073;DHT22;34865;51.046;3.732;2022-09-01T06:58:45;18.10;99.90
23073;DHT22;34865;51.046;3.732;2022-09-01T07:01:14;17.90;99.90
23073;DHT22;34865;51.046;3.732;2022-09-01T07:03:43;17.90;99.90
23073;DHT22;34865;51.046;3.732;2022-09-01T07:06:09;18.10;99.90
23073;DHT22;34865;51.046;3.732;2022-09-01T07:08:36;18.30;99.90
23073;DHT22;34865;51.046;3.732;2022-09-01T07:11:06;18.40;99.90
23073;DHT22;34865;51.046;3.732;2022-09-01T07:13:33;18.40;99.90
23073;DHT22;34865;51.046;3.732;2022-09-01T07:16:01;18.50;99.90
23073;DHT22;34865;51.046;3.732;2022-09-01T07:18:28;18.40;99.90
23073;DHT22;34865;51.046;3.732;2022-09-01T07:20:55;18.30;99.90
23073;DHT22;34865;51.046;3.732;2022-09-01T07:23:21;18.50;99.90
23073;DHT22;34865;51.046;3.732;2022-09-01T07:25:50;18.60;99.90
23073;DHT22;34865;51.046;3.732;2022-09-01T07:28:21;18.70;99.90
23073;DHT22;34865;51.046;3.732;2022-09-01T07:30:50;18.80;99.90
23073;DHT22;34865;51.046;3.732;2022-09-01T07:33:19;19.20;99.90
23073;DHT22;34865;51.046;3.732;2022-09-01T07:35:49;19.40;99.90
23073;DHT22;34865;51.046;3.732;2022-09-01T07:38:18;19.40;99.90
23073;DHT22;34865;51.046;3.732;2022-09-01T07:40:47;19.40;99.90
23073;DHT22;34865;51.046;3.732;2022-09-01T07:43:21;19.30;99.90
23073;DHT22;34865;51.046;3.732;2022-09-01T07:45:50;19.20;99.90
23073;DHT22;34865;51.046;3.732;2022-09-01T07:48:18;19.20;99.90
23073;DHT22;34865;51.046;3.732;2022-09-01T07:50:49;19.40;99.90
23073;DHT22;34865;51.046;3.732;2022-09-01T07:53:36;19.30;99.90
23073;DHT22;34865;51.046;3.732;2022-09-01T07:56:08;19.60;99.90
23073;DHT22;34865;51.046;3.732;2022-09-01T07:58:35;19.70;99.90
23073;DHT22;34865;51.046;3.732;2022-09-01T08:01:05;20.00;99.90
23073;DHT22;34865;51.046;3.732;2022-09-01T08:03:31;20.00;99.90
23073;DHT22;34865;51.046;3.732;2022-09-01T08:06:05;20.10;99.90
23073;DHT22;34865;51.046;3.732;2022-09-01T08:08:33;21.00;99.90
23073;DHT22;34865;51.046;3.732;2022-09-01T08:10:59;22.30;99.90
23073;DHT22;34865;51.046;3.732;2022-09-01T08:13:25;23.40;99.90
23073;DHT22;34865;51.046;3.732;2022-09-01T08:15:50;24.10;99.90
23073;DHT22;34865;51.046;3.732;2022-09-01T08:18:16;25.80;99.90
23073;DHT22;34865;51.046;3.732;2022-09-01T08:20:43;25.60;99.90
23073;DHT22;34865;51.046;3.732;2022-09-01T08:23:11;26.00;99.90
23073;DHT22;34865;51.046;3.732;2022-09-01T08:25:39;26.30;99.90
23073;DHT22;34865;51.046;3.732;2022-09-01T08:28:06;26.60;99.90
23073;DHT22;34865;51.046;3.732;2022-09-01T08:30:33;27.60;99.90
23073;DHT22;34865;51.046;3.732;2022-09-01T08:33:00;27.70;99.90
23073;DHT22;34865;51.046;3.732;2022-09-01T08:35:27;27.30;99.90
23073;DHT22;34865;51.046;3.732;2022-09-01T08:37:54;27.30;99.90
23073;DHT22;34865;51.046;3.732;2022-09-01T08:40:21;27.10;99.90
23073;DHT22;34865;51.046;3.732;2022-09-01T08:45:36;27.40;99.90
23073;DHT22;34865;51.046;3.732;2022-09-01T08:48:36;28.10;99.90
23073;DHT22;34865;51.046;3.732;2022-09-01T08:51:26;29.00;99.90
23073;DHT22;34865;51.046;3.732;2022-09-01T08:54:06;29.30;99.90
23073;DHT22;34865;51.046;3.732;2022-09-01T08:56:35;29.00;99.90
23073;DHT22;34865;51.046;3.732;2022-09-01T08:59:05;28.70;99.90
23073;DHT22;34865;51.046;3.732;2022-09-01T09:09:17;28.10;99.90
23073;DHT22;34865;51.046;3.732;2022-09-01T09:15:21;28.50;99.90
23073;DHT22;34865;51.046;3.732;2022-09-01T09:17:58;29.10;99.90
23073;DHT22;34865;51.046;3.732;2022-09-01T09:20:27;28.60;99.90
23073;DHT22;34865;51.046;3.732;2022-09-01T09:22:55;27.90;99.90
23073;DHT22;34865;51.046;3.732;2022-09-01T09:25:22;27.40;99.90
23073;DHT22;34865;51.046;3.732;2022-09-01T09:27:49;26.80;99.90
23073;DHT22;34865;51.046;3.732;2022-09-01T09:30:22;26.50;99.90
23073;DHT22;34865;51.046;3.732;2022-09-01T09:35:31;26.80;99.90
23073;DHT22;34865;51.046;3.732;2022-09-01T09:41:00;27.50;99.90
23073;DHT22;34865;51.046;3.732;2022-09-01T09:43:28;29.40;99.90
23073;DHT22;34865;51.046;3.732;2022-09-01T09:48:46;28.50;99.90
23073;DHT22;34865;51.046;3.732;2022-09-01T09:51:20;27.70;99.90
23073;DHT22;34865;51.046;3.732;2022-09-01T09:53:47;27.60;99.90
23073;DHT22;34865;51.046;3.732;2022-09-01T09:56:23;28.00;99.90
23073;DHT22;34865;51.046;3.732;2022-09-01T09:58:51;28.00;99.90
23073;DHT22;34865;51.046;3.732;2022-09-01T10:03:55;28.70;99.90
23073;DHT22;34865;51.046;3.732;2022-09-01T10:06:39;28.60;99.90
23073;DHT22;34865;51.046;3.732;2022-09-01T10:11:57;27.20;99.90
23073;DHT22;34865;51.046;3.732;2022-09-01T10:14:37;26.70;99.90
23073;DHT22;34865;51.046;3.732;2022-09-01T10:17:20;26.00;99.90
23073;DHT22;34865;51.046;3.732;2022-09-01T10:19:59;26.20;99.90
23073;DHT22;34865;51.046;3.732;2022-09-01T10:22:31;26.30;99.90
23073;DHT22;34865;51.046;3.732;2022-09-01T10:24:58;26.30;99.90
23073;DHT22;34865;51.046;3.732;2022-09-01T10:27:31;26.50;99.90
23073;DHT22;34865;51.046;3.732;2022-09-01T10:32:53;27.20;99.90
23073;DHT22;34865;51.046;3.732;2022-09-01T10:35:31;27.70;99.90
23073;DHT22;34865;51.046;3.732;2022-09-01T10:38:02;27.60;99.90
23073;DHT22;34865;51.046;3.732;2022-09-01T10:42:57;27.40;99.90
23073;DHT22;34865;51.046;3.732;2022-09-01T10:45:35;27.30;99.90
23073;DHT22;34865;51.046;3.732;2022-09-01T10:50:47;26.40;99.90
23073;DHT22;34865;51.046;3.732;2022-09-01T11:09:28;24.80;99.90
23073;DHT22;34865;51.046;3.732;2022-09-01T11:17:37;24.60;99.90
23073;DHT22;34865;51.046;3.732;2022-09-01T11:20:23;24.70;99.90
23073;DHT22;34865;51.046;3.732;2022-09-01T11:25:47;25.00;99.90
23073;DHT22;34865;51.046;3.732;2022-09-01T11:30:59;25.20;99.90
23073;DHT22;34865;51.046;3.732;2022-09-01T11:36:57;25.10;99.90
23073;DHT22;34865;51.046;3.732;2022-09-01T11:42:10;25.10;99.90
23073;DHT22;34865;51.046;3.732;2022-09-01T11:44:52;25.00;99.90
23073;DHT22;34865;51.046;3.732;2022-09-01T11:47:23;25.20;99.90
23073;DHT22;34865;51.046;3.732;2022-09-01T11:49:58;25.40;99.90
23073;DHT22;34865;51.046;3.732;2022-09-01T11:52:26;25.40;99.90
23073;DHT22;34865;51.046;3.732;2022-09-01T11:54:54;25.60;99.90
23073;DHT22;34865;51.046;3.732;2022-09-01T11:57:34;26.00;99.90
23073;DHT22;34865;51.046;3.732;2022-09-01T12:00:07;26.10;99.90
23073;DHT22;34865;51.046;3.732;2022-09-01T12:02:35;25.80;99.90
23073;DHT22;34865;51.046;3.732;2022-09-01T12:07:50;25.40;99.90
23073;DHT22;34865;51.046;3.732;2022-09-01T12:10:36;25.30;99.90
23073;DHT22;34865;51.046;3.732;2022-09-01T12:13:06;25.30;99.90
23073;DHT22;34865;51.046;3.732;2022-09-01T12:15:33;25.30;99.90
23073;DHT22;34865;51.046;3.732;2022-09-01T12:18:30;25.40;99.90
23073;DHT22;34865;51.046;3.732;2022-09-01T12:21:00;25.40;99.90
23073;DHT22;34865;51.046;3.732;2022-09-01T12:23:33;25.40;99.90
23073;DHT22;34865;51.046;3.732;2022-09-01T12:26:08;25.40;99.90
23073;DHT22;34865;51.046;3.732;2022-09-01T12:28:34;25.50;99.90
23073;DHT22;34865;51.046;3.732;2022-09-01T12:31:05;25.60;99.90
23073;DHT22;34865;51.046;3.732;2022-09-01T12:33:32;25.60;99.90
23073;DHT22;34865;51.046;3.732;2022-09-01T12:38:47;26.00;99.90
23073;DHT22;34865;51.046;3.732;2022-09-01T12:47:01;26.20;99.90
23073;DHT22;34865;51.046;3.732;2022-09-01T12:49:37;26.10;99.90
23073;DHT22;34865;51.046;3.732;2022-09-01T12:54:48;26.40;99.90
23073;DHT22;34865;51.046;3.732;2022-09-01T12:57:33;26.40;99.90
23073;DHT22;34865;51.046;3.732;2022-09-01T13:00:16;26.10;99.90
23073;DHT22;34865;51.046;3.732;2022-09-01T13:03:12;25.80;99.90
23073;DHT22;34865;51.046;3.732;2022-09-01T13:05:43;25.70;99.90
23073;DHT22;34865;51.046;3.732;2022-09-01T13:08:18;25.70;99.90
23073;DHT22;34865;51.046;3.732;2022-09-01T13:10:50;25.80;99.90
23073;DHT22;34865;51.046;3.732;2022-09-01T13:13:18;25.80;99.90
23073;DHT22;34865;51.046;3.732;2022-09-01T13:15:51;25.80;99.90
23073;DHT22;34865;51.046;3.732;2022-09-01T13:18:19;26.10;99.90
23073;DHT22;34865;51.046;3.732;2022-09-01T13:20:46;26.30;99.90
23073;DHT22;34865;51.046;3.732;2022-09-01T13:23:12;26.60;99.90
23073;DHT22;34865;51.046;3.732;2022-09-01T13:25:39;27.00;99.90
23073;DHT22;34865;51.046;3.732;2022-09-01T13:28:05;26.90;99.90
23073;DHT22;34865;51.046;3.732;2022-09-01T13:30:32;26.40;99.90
23073;DHT22;34865;51.046;3.732;2022-09-01T13:32:58;26.50;99.90
23073;DHT22;34865;51.046;3.732;2022-09-01T13:35:24;26.30;99.90
23073;DHT22;34865;51.046;3.732;2022-09-01T13:37:50;26.10;99.90
23073;DHT22;34865;51.046;3.732;2022-09-01T13:40:20;26.10;99.90
23073;DHT22;34865;51.046;3.732;2022-09-01T13:42:48;26.30;99.90
23073;DHT22;34865;51.046;3.732;2022-09-01T13:45:15;26.50;99.90
23073;DHT22;34865;51.046;3.732;2022-09-01T13:47:44;26.30;99.90
23073;DHT22;34865;51.046;3.732;2022-09-01T13:50:12;26.10;99.90
23073;DHT22;34865;51.046;3.732;2022-09-01T13:52:40;26.00;99.90
23073;DHT22;34865;51.046;3.732;2022-09-01T13:55:09;25.90;99.90
23073;DHT22;34865;51.046;3.732;2022-09-01T13:57:35;25.90;99.90
23073;DHT22;34865;51.046;3.732;2022-09-01T14:00:04;25.90;99.90
23073;DHT22;34865;51.046;3.732;2022-09-01T14:02:30;25.90;99.90
23073;DHT22;34865;51.046;3.732;2022-09-01T14:04:56;25.90;99.90
23073;DHT22;34865;51.046;3.732;2022-09-01T14:07:22;26.20;99.90
23073;DHT22;34865;51.046;3.732;2022-09-01T14:09:47;26.10;99.90
23073;DHT22;34865;51.046;3.732;2022-09-01T14:12:13;26.00;99.90
23073;DHT22;34865;51.046;3.732;2022-09-01T14:14:38;25.90;99.90
23073;DHT22;34865;51.046;3.732;2022-09-01T14:17:04;25.70;99.90
23073;DHT22;34865;51.046;3.732;2022-09-01T14:19:30;25.60;99.90
23073;DHT22;34865;51.046;3.732;2022-09-01T14:21:56;25.80;99.90
23073;DHT22;34865;51.046;3.732;2022-09-01T14:24:22;26.00;99.90
23073;DHT22;34865;51.046;3.732;2022-09-01T14:26:47;26.00;99.90
23073;DHT22;34865;51.046;3.732;2022-09-01T14:29:15;25.90;99.90
23073;DHT22;34865;51.046;3.732;2022-09-01T14:31:41;25.60;99.90
23073;DHT22;34865;51.046;3.732;2022-09-01T14:34:08;25.50;99.90
23073;DHT22;34865;51.046;3.732;2022-09-01T14:36:36;25.50;99.90
23073;DHT22;34865;51.046;3.732;2022-09-01T14:39:03;25.40;99.90
23073;DHT22;34865;51.046;3.732;2022-09-01T14:41:30;25.40;99.90
23073;DHT22;34865;51.046;3.732;2022-09-01T14:43:56;25.50;99.90
23073;DHT22;34865;51.046;3.732;2022-09-01T14:46:27;25.60;99.90
23073;DHT22;34865;51.046;3.732;2022-09-01T14:48:54;25.60;99.90
23073;DHT22;34865;51.046;3.732;2022-09-01T14:51:26;25.80;99.90
23073;DHT22;34865;51.046;3.732;2022-09-01T14:53:53;26.00;99.90
23073;DHT22;34865;51.046;3.732;2022-09-01T14:56:19;26.10;99.90
23073;DHT22;34865;51.046;3.732;2022-09-01T14:58:46;26.00;99.90
23073;DHT22;34865;51.046;3.732;2022-09-01T15:01:18;25.90;99.90
23073;DHT22;34865;51.046;3.732;2022-09-01T15:03:45;25.80;99.90
23073;DHT22;34865;51.046;3.732;2022-09-01T15:06:15;25.70;99.90
23073;DHT22;34865;51.046;3.732;2022-09-01T15:08:42;25.60;99.90
23073;DHT22;34865;51.046;3.732;2022-09-01T15:11:15;25.60;99.90
23073;DHT22;34865;51.046;3.732;2022-09-01T15:13:43;25.60;99.90
23073;DHT22;34865;51.046;3.732;2022-09-01T15:16:16;25.50;99.90
23073;DHT22;34865;51.046;3.732;2022-09-01T15:18:42;25.60;99.90
23073;DHT22;34865;51.046;3.732;2022-09-01T15:21:16;25.70;99.90
23073;DHT22;34865;51.046;3.732;2022-09-01T15:23:41;25.80;99.90
23073;DHT22;34865;51.046;3.732;2022-09-01T15:26:07;25.80;99.90
23073;DHT22;34865;51.046;3.732;2022-09-01T15:28:33;25.80;99.90
23073;DHT22;34865;51.046;3.732;2022-09-01T15:30:58;25.80;99.90
23073;DHT22;34865;51.046;3.732;2022-09-01T15:33:24;25.90;99.90
23073;DHT22;34865;51.046;3.732;2022-09-01T15:35:50;25.90;99.90
23073;DHT22;34865;51.046;3.732;2022-09-01T15:38:16;25.90;99.90
23073;DHT22;34865;51.046;3.732;2022-09-01T15:40:44;25.90;99.90
23073;DHT22;34865;51.046;3.732;2022-09-01T15:43:10;25.90;99.90
23073;DHT22;34865;51.046;3.732;2022-09-01T15:45:36;25.90;99.90
23073;DHT22;34865;51.046;3.732;2022-09-01T15:48:03;25.60;99.90
23073;DHT22;34865;51.046;3.732;2022-09-01T15:50:29;25.50;99.90
23073;DHT22;34865;51.046;3.732;2022-09-01T15:53:00;25.20;99.90
23073;DHT22;34865;51.046;3.732;2022-09-01T15:55:43;25.20;99.90
23073;DHT22;34865;51.046;3.732;2022-09-01T15:58:12;25.10;99.90
23073;DHT22;34865;51.046;3.732;2022-09-01T16:00:39;25.10;99.90
23073;DHT22;34865;51.046;3.732;2022-09-01T16:03:05;25.10;99.90
23073;DHT22;34865;51.046;3.732;2022-09-01T16:05:33;25.10;99.90
23073;DHT22;34865;51.046;3.732;2022-09-01T16:07:59;25.20;99.90
23073;DHT22;34865;51.046;3.732;2022-09-01T16:10:27;25.10;99.90
23073;DHT22;34865;51.046;3.732;2022-09-01T16:12:54;25.20;99.90
23073;DHT22;34865;51.046;3.732;2022-09-01T16:15:23;25.20;99.90
23073;DHT22;34865;51.046;3.732;2022-09-01T16:17:55;25.10;99.90
23073;DHT22;34865;51.046;3.732;2022-09-01T16:20:56;25.20;99.90
23073;DHT22;34865;51.046;3.732;2022-09-01T16:23:31;25.10;99.90
23073;DHT22;34865;51.046;3.732;2022-09-01T16:25:59;25.00;99.90
23073;DHT22;34865;51.046;3.732;2022-09-01T16:28:32;25.00;99.90
23073;DHT22;34865;51.046;3.732;2022-09-01T16:31:10;25.00;99.90
23073;DHT22;34865;51.046;3.732;2022-09-01T16:33:36;25.10;99.90
23073;DHT22;34865;51.046;3.732;2022-09-01T16:39:03;25.10;99.90
23073;DHT22;34865;51.046;3.732;2022-09-01T16:44:22;25.00;99.90
23073;DHT22;34865;51.046;3.732;2022-09-01T16:48:12;25.00;99.90
23073;DHT22;34865;51.046;3.732;2022-09-01T16:56:09;25.30;99.90
23073;DHT22;34865;51.046;3.732;2022-09-01T17:04:19;24.80;99.90
23073;DHT22;34865;51.046;3.732;2022-09-01T17:07:19;24.80;99.90
23073;DHT22;34865;51.046;3.732;2022-09-01T17:09:44;24.80;99.90
23073;DHT22;34865;51.046;3.732;2022-09-01T17:12:26;24.80;99.90
23073;DHT22;34865;51.046;3.732;2022-09-01T17:15:11;24.80;99.90
23073;DHT22;34865;51.046;3.732;2022-09-01T17:20:29;24.80;99.90
23073;DHT22;34865;51.046;3.732;2022-09-01T17:23:00;24.70;99.90
23073;DHT22;34865;51.046;3.732;2022-09-01T17:25:39;24.70;99.90
23073;DHT22;34865;51.046;3.732;2022-09-01T17:28:18;24.60;99.90
23073;DHT22;34865;51.046;3.732;2022-09-01T17:30:59;24.60;99.90
23073;DHT22;34865;51.046;3.732;2022-09-01T17:36:31;24.50;99.90